Time;durP1;ratioP1;P1;durP2;ratioP2;P2;SDS_P1;SDS_P2;PMS_P1;PMS_P2;Temp;Humidity;BMP_temperature;BMP_pressure;BME280_temperature;BME280_humidity;BME280_pressure;Samples;Min_cycle;Max_cycle;Signal;HPM_P1;HPM_P2
2022/06/29 00:00:25;;;;;;;9.63;6.28;;;;;;;22.60;100.00;100200.19;5112667;28;20229;-70
2022/06/29 00:02:55;;;;;;;5.88;5.38;;;;;;;22.72;100.00;100231.56;5076901;28;20573;-71
2022/06/29 00:05:23;;;;;;;5.93;5.40;;;;;;;22.71;100.00;100229.81;5113057;28;20198;-71
2022/06/29 00:07:51;;;;;;;6.47;5.82;;;;;;;22.86;100.00;100224.03;5112767;28;20194;-72
2022/06/29 00:10:18;;;;;;;6.43;5.82;;;;;;;22.92;100.00;100223.81;5112935;28;20197;-71
2022/06/29 00:12:47;;;;;;;6.45;5.95;;;;;;;22.88;100.00;100222.19;5113108;28;20225;-71
2022/06/29 00:15:15;;;;;;;6.78;6.05;;;;;;;22.91;100.00;100227.38;5112565;28;20194;-71
2022/06/29 00:17:42;;;;;;;6.13;5.60;;;;;;;22.79;100.00;100219.88;5113573;28;20579;-71
2022/06/29 00:20:12;;;;;;;6.05;5.55;;;;;;;22.87;100.00;100216.94;5113255;28;20189;-70
2022/06/29 00:22:39;;;;;;;6.97;5.75;;;;;;;22.77;100.00;100203.16;5112801;28;20211;-70
2022/06/29 00:25:07;;;;;;;8.30;5.50;;;;;;;22.77;100.00;100219.03;5112649;28;20209;-70
2022/06/29 00:27:35;;;;;;;6.53;4.55;;;;;;;22.73;100.00;100199.75;5112449;28;20665;-70
2022/06/29 00:30:02;;;;;;;5.50;5.10;;;;;;;22.81;100.00;100204.81;5112615;28;20738;-71
2022/06/29 00:32:30;;;;;;;5.63;5.15;;;;;;;22.89;100.00;100223.06;5112806;28;20201;-70
2022/06/29 00:34:57;;;;;;;5.75;5.30;;;;;;;22.88;100.00;100203.69;5077482;28;20205;-70
2022/06/29 00:37:26;;;;;;;5.45;4.95;;;;;;;22.92;100.00;100202.66;5112322;28;20209;-71
2022/06/29 00:39:53;;;;;;;7.55;4.97;;;;;;;23.04;100.00;100206.69;5112050;28;20202;-71
2022/06/29 00:42:19;;;;;;;5.55;5.15;;;;;;;22.90;100.00;100193.91;5112064;28;20201;-71
2022/06/29 00:44:46;;;;;;;7.68;5.32;;;;;;;22.92;100.00;100194.72;5112122;28;20201;-70
2022/06/29 00:47:13;;;;;;;5.22;4.70;;;;;;;22.92;100.00;100207.97;5112860;28;20205;-71
2022/06/29 00:49:40;;;;;;;5.38;4.88;;;;;;;22.93;100.00;100200.88;5093501;28;20200;-71
2022/06/29 00:52:09;;;;;;;4.68;4.38;;;;;;;22.98;100.00;100207.75;5112250;28;20186;-71
2022/06/29 00:54:40;;;;;;;4.97;4.57;;;;;;;22.99;100.00;100190.09;5112187;28;20228;-71
2022/06/29 00:57:12;;;;;;;5.15;4.70;;;;;;;23.09;100.00;100197.66;5112460;28;20212;-70
2022/06/29 00:59:44;;;;;;;5.43;4.45;;;;;;;23.12;100.00;100205.50;5112153;28;20226;-71
2022/06/29 01:02:13;;;;;;;6.93;5.13;;;;;;;22.93;100.00;100187.66;5110373;28;20196;-71
2022/06/29 01:04:40;;;;;;;5.63;4.95;;;;;;;22.88;100.00;100184.31;5111823;28;20655;-70
2022/06/29 01:07:07;;;;;;;5.10;4.60;;;;;;;22.84;100.00;100159.75;5111791;28;20197;-71
2022/06/29 01:09:34;;;;;;;4.97;4.47;;;;;;;22.70;100.00;100127.63;5111478;28;20201;-71
2022/06/29 01:12:03;;;;;;;6.65;4.55;;;;;;;23.14;100.00;100195.75;5112182;28;20200;-71
2022/06/29 01:14:30;;;;;;;5.22;4.60;;;;;;;23.00;100.00;100203.28;5093023;28;20228;-70
2022/06/29 01:16:57;;;;;;;9.02;4.72;;;;;;;22.82;100.00;100158.94;5076175;28;20197;-71
2022/06/29 01:19:24;;;;;;;6.40;4.38;;;;;;;22.98;100.00;100207.75;5111507;28;20200;-71
2022/06/29 01:21:52;;;;;;;5.35;4.65;;;;;;;23.10;100.00;100212.63;5092285;28;20265;-71
2022/06/29 01:24:21;;;;;;;5.40;4.90;;;;;;;23.01;100.00;100191.75;5112059;28;20221;-71
2022/06/29 01:26:49;;;;;;;5.82;4.57;;;;;;;22.93;100.00;100209.69;5112039;28;20205;-71
2022/06/29 01:29:16;;;;;;;5.88;4.65;;;;;;;22.85;100.00;100210.84;5111632;28;20201;-71
2022/06/29 01:31:43;;;;;;;5.07;4.43;;;;;;;22.68;100.00;100206.13;5111671;28;20240;-72
2022/06/29 01:34:10;;;;;;;10.25;5.75;;;;;;;22.76;100.00;100204.06;5075776;28;20229;-70
2022/06/29 01:36:37;;;;;;;5.07;4.60;;;;;;;22.79;100.00;100205.78;5111440;28;20202;-70
2022/06/29 01:39:04;;;;;;;6.07;4.63;;;;;;;22.73;100.00;100172.44;5075169;28;20196;-70
2022/06/29 01:41:32;;;;;;;4.82;4.40;;;;;;;22.97;100.00;100211.28;5111375;28;20202;-70
2022/06/29 01:43:59;;;;;;;6.38;5.00;;;;;;;22.58;100.00;100208.13;5111696;28;20201;-70
2022/06/29 01:46:26;;;;;;;6.00;5.10;;;;;;;22.68;100.00;100201.72;5111677;28;20236;-71
2022/06/29 01:48:53;;;;;;;6.75;4.82;;;;;;;22.76;100.00;100196.13;5111683;28;20189;-70
2022/06/29 01:51:20;;;;;;;4.53;4.18;;;;;;;22.64;100.00;100191.25;5111199;28;20202;-70
2022/06/29 01:53:47;;;;;;;5.22;4.72;;;;;;;22.56;100.00;100187.97;5110659;28;20232;-71
2022/06/29 01:56:14;;;;;;;5.85;5.07;;;;;;;22.49;100.00;100204.94;5111624;28;20201;-70
2022/06/29 01:58:42;;;;;;;6.43;4.90;;;;;;;22.67;100.00;100204.38;5075395;28;20204;-71
2022/06/29 02:01:09;;;;;;;5.95;5.22;;;;;;;22.39;100.00;100200.84;5110851;28;20208;-71
2022/06/29 02:03:36;;;;;;;6.18;5.60;;;;;;;22.44;100.00;100206.88;5111090;28;20573;-70
2022/06/29 02:06:03;;;;;;;6.57;5.30;;;;;;;22.34;100.00;100208.06;5091993;28;20197;-71
2022/06/29 02:08:31;;;;;;;10.07;4.82;;;;;;;22.35;100.00;100209.78;5111446;28;20707;-71
2022/06/29 02:10:58;;;;;;;6.30;5.72;;;;;;;22.42;100.00;100195.47;5111177;28;20208;-72
2022/06/29 02:13:24;;;;;;;6.55;5.32;;;;;;;22.18;100.00;100191.81;5109944;28;20677;-71
2022/06/29 02:15:53;;;;;;;5.40;4.45;;;;;;;22.32;100.00;100200.19;5110699;28;20207;-71
2022/06/29 02:18:20;;;;;;;7.95;5.50;;;;;;;22.22;100.00;100183.72;5110776;28;20198;-71
2022/06/29 02:20:47;;;;;;;5.72;5.18;;;;;;;22.12;100.00;100177.00;5110879;28;20262;-70
2022/06/29 02:23:14;;;;;;;7.72;6.03;;;;;;;22.22;100.00;100189.03;5110826;28;20226;-72
2022/06/29 02:25:41;;;;;;;5.82;4.70;;;;;;;22.08;100.00;100178.00;5110940;28;20202;-71
2022/06/29 02:28:08;;;;;;;5.50;5.00;;;;;;;22.27;100.00;100198.59;5110771;28;20190;-71
2022/06/29 02:36:06;;;;;;;7.70;5.38;;;;;;;22.18;100.00;100183.91;5090821;28;20269;-71
2022/06/29 02:38:32;;;;;;;6.63;5.38;;;;;;;22.09;100.00;100186.81;5103838;28;20284;-71
2022/06/29 02:40:59;;;;;;;6.82;5.35;;;;;;;22.24;100.00;100203.06;5110686;28;20198;-71
2022/06/29 02:43:26;;;;;;;5.95;5.43;;;;;;;22.16;100.00;100210.34;5110577;28;20193;-71
2022/06/29 02:45:53;;;;;;;8.50;5.57;;;;;;;21.93;100.00;100199.63;5074426;28;20193;-71
2022/06/29 02:48:22;;;;;;;6.43;5.45;;;;;;;22.19;100.00;100210.25;5110654;28;20589;-71
2022/06/29 02:50:48;;;;;;;5.40;5.00;;;;;;;22.15;100.00;100213.91;5111147;28;20202;-70
2022/06/29 02:53:15;;;;;;;5.97;5.45;;;;;;;22.17;100.00;100196.25;5091017;28;20201;-70
2022/06/29 02:55:42;;;;;;;7.13;5.38;;;;;;;22.34;100.00;100208.91;5110607;28;20197;-70
2022/06/29 02:58:09;;;;;;;6.95;5.65;;;;;;;22.30;100.00;100186.16;5109846;28;20189;-70
2022/06/29 03:00:36;;;;;;;5.35;4.88;;;;;;;22.35;100.00;100209.78;5110948;28;20201;-70
2022/06/29 03:03:03;;;;;;;5.95;5.45;;;;;;;22.36;100.00;100211.53;5110799;28;20197;-70
2022/06/29 03:05:31;;;;;;;8.98;5.57;;;;;;;22.38;100.00;100212.34;5111828;28;20200;-70
2022/06/29 03:07:58;;;;;;;5.85;5.35;;;;;;;22.15;100.00;100165.50;5113312;28;20585;-70
2022/06/29 03:10:25;;;;;;;6.78;5.85;;;;;;;22.24;100.00;100200.44;5111410;28;20664;-70
2022/06/29 03:12:52;;;;;;;6.35;5.72;;;;;;;22.36;100.00;100211.53;5094631;28;20185;-71
2022/06/29 03:15:19;;;;;;;8.50;6.53;;;;;;;22.78;100.00;100204.91;5113498;28;20222;-71
2022/06/29 03:17:45;;;;;;;6.75;5.55;;;;;;;22.79;100.00;100197.84;5114370;28;20193;-71
2022/06/29 03:20:14;;;;;;;7.80;5.70;;;;;;;23.28;100.00;100215.56;5114089;28;20201;-70
2022/06/29 03:22:46;;;;;;;6.28;5.32;;;;;;;23.66;100.00;100228.31;5114086;28;20189;-70
2022/06/29 03:25:12;;;;;;;7.95;5.50;;;;;;;23.88;100.00;100231.91;5113941;28;20285;-70
2022/06/29 03:27:39;;;;;;;5.80;5.15;;;;;;;23.91;100.00;100223.84;5112277;28;20197;-71
2022/06/29 03:30:07;;;;;;;5.50;5.00;;;;;;;24.16;100.00;100227.34;5113143;28;20650;-71
2022/06/29 03:32:34;;;;;;;7.90;5.47;;;;;;;23.95;100.00;100224.59;5113869;28;20197;-71
2022/06/29 03:35:01;;;;;;;5.22;4.70;;;;;;;24.01;100.00;100219.06;5113204;28;20213;-71
2022/06/29 03:37:28;;;;;;;5.53;5.03;;;;;;;24.46;100.00;100229.72;5094399;28;20625;-71
2022/06/29 03:39:56;;;;;;;8.57;5.13;;;;;;;25.10;100.00;100231.53;5113646;28;20198;-71
2022/06/29 03:42:23;;;;;;;6.70;5.22;;;;;;;25.08;100.00;100237.81;5076476;28;20218;-71
2022/06/29 03:44:50;;;;;;;7.78;4.50;;;;;;;25.36;100.00;100229.56;5110315;28;20200;-71
2022/06/29 03:47:17;;;;;;;4.97;4.55;;;;;;;25.84;100.00;100234.50;5112344;28;20209;-71
2022/06/29 03:49:44;;;;;;;5.90;4.65;;;;;;;26.38;100.00;100249.75;5113266;28;20220;-71
2022/06/29 03:52:11;;;;;;;6.40;4.90;;;;;;;26.28;100.00;100240.47;5110423;28;20724;-70
2022/06/29 03:54:38;;;;;;;5.20;4.78;;;;;;;26.42;100.00;100246.00;5112818;28;20705;-71
2022/06/29 03:57:06;;;;;;;6.93;4.78;;;;;;;27.13;98.56;100236.34;5112962;28;20204;-72
2022/06/29 03:59:33;;;;;;;6.20;4.97;;;;;;;26.98;99.19;100238.81;5075757;28;20575;-71
2022/06/29 04:02:00;;;;;;;5.68;5.18;;;;;;;27.16;96.16;100236.16;5112841;28;20274;-71
2022/06/29 04:04:27;;;;;;;6.15;5.30;;;;;;;27.42;93.29;100230.38;5113395;28;20202;-70
2022/06/29 04:06:53;;;;;;;6.63;5.20;;;;;;;27.67;90.63;100228.19;5113190;28;20221;-69
2022/06/29 04:09:20;;;;;;;6.43;5.13;;;;;;;27.28;92.90;100224.91;5075284;28;20201;-68
2022/06/29 04:11:52;;;;;;;5.90;5.32;;;;;;;27.53;93.96;100225.41;5113323;28;20198;-69
2022/06/29 04:14:22;;;;;;;6.88;6.20;;;;;;;27.62;92.35;100221.38;5112513;28;20221;-69
2022/06/29 04:16:50;;;;;;;7.18;5.93;;;;;;;27.68;94.32;100229.94;5108871;28;20204;-68
2022/06/29 04:19:17;;;;;;;5.75;5.25;;;;;;;27.91;91.47;100215.34;5109672;28;20205;-69
2022/06/29 04:21:44;;;;;;;7.45;5.57;;;;;;;28.67;85.84;100214.69;5103523;28;20208;-70
2022/06/29 04:24:11;;;;;;;6.40;5.88;;;;;;;29.01;82.44;100219.78;5112680;28;20209;-67
2022/06/29 04:26:38;;;;;;;7.45;5.78;;;;;;;29.36;81.39;100232.91;5100213;28;20206;-67
2022/06/29 04:29:06;;;;;;;9.63;5.55;;;;;;;29.84;77.30;100251.31;5071598;28;20194;-67
2022/06/29 04:31:34;;;;;;;7.38;6.55;;;;;;;28.88;84.44;100248.16;5100271;28;20221;-67
2022/06/29 04:34:01;;;;;;;14.35;5.85;;;;;;;29.28;82.89;100262.75;5106055;28;20194;-69
2022/06/29 04:36:28;;;;;;;6.47;5.80;;;;;;;29.43;78.69;100212.88;5092623;28;20218;-68
2022/06/29 04:38:55;;;;;;;6.93;5.97;;;;;;;30.02;76.31;100255.53;5106710;28;20200;-68
2022/06/29 04:41:22;;;;;;;8.60;5.68;;;;;;;30.40;72.74;100249.56;5099991;28;20210;-67
2022/06/29 04:43:50;;;;;;;7.65;5.88;;;;;;;30.92;69.48;100239.91;5092316;28;20213;-70
2022/06/29 04:46:23;;;;;;;6.35;5.72;;;;;;;30.44;71.68;100249.31;5096979;28;20202;-70
2022/06/29 04:48:55;;;;;;;6.30;5.70;;;;;;;30.71;69.55;100253.84;5099647;28;20197;-70
2022/06/29 04:51:22;;;;;;;7.97;5.60;;;;;;;31.06;68.67;100247.03;5096906;28;20638;-69
2022/06/29 04:53:53;;;;;;;7.72;5.10;;;;;;;31.23;66.33;100244.09;5092332;28;20201;-70
2022/06/29 04:56:21;;;;;;;10.98;5.60;;;;;;;31.30;66.70;100240.03;5098144;28;20208;-70
2022/06/29 04:58:48;;;;;;;7.43;6.00;;;;;;;32.05;63.08;100250.91;5096602;28;20201;-71
2022/06/29 05:01:15;;;;;;;5.78;5.28;;;;;;;32.15;61.67;100250.19;5106120;28;20572;-70
2022/06/29 05:03:42;;;;;;;5.78;5.38;;;;;;;32.17;60.48;100255.44;5104208;28;20591;-70
2022/06/29 05:06:10;;;;;;;9.43;5.38;;;;;;;32.28;61.02;100252.84;5071717;28;20715;-71
2022/06/29 05:08:37;;;;;;;5.75;5.25;;;;;;;32.39;59.92;100255.63;5112085;28;20748;-70
2022/06/29 05:11:04;;;;;;;8.10;5.70;;;;;;;31.99;60.73;100262.09;5112069;28;20205;-70
2022/06/29 05:13:30;;;;;;;6.30;5.57;;;;;;;31.13;64.86;100266.25;5097528;28;20204;-71
2022/06/29 05:15:57;;;;;;;7.63;5.93;;;;;;;31.62;63.12;100243.19;5111897;28;20726;-71
2022/06/29 05:18:25;;;;;;;7.07;5.80;;;;;;;31.65;61.77;100251.03;5072938;28;20202;-70
2022/06/29 05:20:53;;;;;;;11.23;5.50;;;;;;;31.36;63.42;100261.03;5095394;28;20205;-69
2022/06/29 05:23:21;;;;;;;9.60;5.53;;;;;;;31.14;64.59;100267.97;5094936;28;20204;-70
2022/06/29 05:25:48;;;;;;;6.28;5.70;;;;;;;31.22;63.76;100233.44;5063867;28;20201;-69
2022/06/29 05:28:15;;;;;;;9.82;5.68;;;;;;;31.75;62.06;100270.88;5105197;28;20189;-69
2022/06/29 05:30:42;;;;;;;6.45;5.88;;;;;;;31.08;64.38;100274.56;5105471;28;21023;-69
2022/06/29 05:33:09;;;;;;;9.90;5.57;;;;;;;31.69;63.25;100267.75;5091459;28;20270;-69
2022/06/29 05:35:36;;;;;;;10.00;6.03;;;;;;;31.98;61.57;100273.78;5093257;28;20221;-70
2022/06/29 05:38:04;;;;;;;6.97;5.82;;;;;;;31.40;63.47;100256.31;5100403;28;20208;-69
2022/06/29 05:40:32;;;;;;;10.32;5.75;;;;;;;31.62;62.44;100290.59;5091314;28;20197;-69
2022/06/29 05:42:59;;;;;;;12.23;6.00;;;;;;;30.78;65.96;100281.94;5091196;28;20205;-68
2022/06/29 05:45:26;;;;;;;7.47;6.07;;;;;;;30.67;68.10;100282.63;5091259;28;20217;-68
2022/06/29 05:47:53;;;;;;;9.40;6.03;;;;;;;31.40;65.10;100273.28;5091256;28;20202;-68
2022/06/29 05:50:21;;;;;;;9.88;6.60;;;;;;;31.64;62.81;100273.47;5091006;28;20205;-69
2022/06/29 05:52:48;;;;;;;7.90;5.85;;;;;;;31.48;64.67;100248.63;5110923;28;20654;-69
2022/06/29 05:55:15;;;;;;;6.45;5.95;;;;;;;31.21;65.20;100270.13;5110959;28;20307;-69
2022/06/29 05:57:43;;;;;;;8.15;6.47;;;;;;;31.37;66.65;100244.00;5091692;28;20197;-69
2022/06/29 06:00:11;;;;;;;8.10;5.63;;;;;;;31.21;64.69;100275.50;5090521;28;20202;-69
2022/06/29 06:02:38;;;;;;;6.15;5.57;;;;;;;31.44;63.67;100274.78;5093830;28;20566;-69
2022/06/29 06:05:06;;;;;;;9.32;5.50;;;;;;;31.63;63.12;100277.09;5091589;28;20681;-69
2022/06/29 06:07:33;;;;;;;6.53;5.95;;;;;;;31.61;64.89;100268.28;5110833;28;20204;-69
2022/06/29 06:10:00;;;;;;;10.82;7.63;;;;;;;30.36;72.16;100282.81;5102625;28;20217;-70
2022/06/29 06:12:28;;;;;;;10.23;7.63;;;;;;;30.82;73.15;100278.09;5090403;28;20201;-69
2022/06/29 06:14:57;;;;;;;8.68;7.55;;;;;;;30.97;70.84;100277.97;5103967;28;20622;-70
2022/06/29 06:17:26;;;;;;;10.63;7.15;;;;;;;30.95;70.91;100282.56;5094068;28;20627;-69
2022/06/29 06:19:53;;;;;;;9.82;7.28;;;;;;;30.63;72.32;100283.78;5088228;28;20342;-70
2022/06/29 06:22:20;;;;;;;9.30;7.53;;;;;;;30.70;71.96;100284.25;5090394;28;20331;-70
2022/06/29 06:24:47;;;;;;;11.90;8.93;;;;;;;30.67;73.05;100263.03;5104065;28;20209;-70
2022/06/29 06:27:14;;;;;;;9.07;7.57;;;;;;;29.87;76.88;100283.22;5110442;28;20204;-69
2022/06/29 06:29:41;;;;;;;12.63;8.05;;;;;;;29.41;83.98;100282.44;5062486;28;20201;-70
2022/06/29 06:32:09;;;;;;;15.05;9.95;;;;;;;29.53;85.05;100278.19;5094086;28;20204;-70
2022/06/29 06:34:36;;;;;;;13.50;7.80;;;;;;;29.57;83.61;100266.34;5110592;28;20197;-70
2022/06/29 06:37:03;;;;;;;15.65;8.23;;;;;;;29.48;85.56;100269.56;5110130;28;20691;-70
2022/06/29 06:39:30;;;;;;;10.93;8.02;;;;;;;29.36;85.84;100260.47;5101603;28;20201;-69
2022/06/29 06:41:56;;;;;;;16.83;8.77;;;;;;;28.57;92.09;100270.34;5108609;28;20719;-69
2022/06/29 06:44:22;;;;;;;12.63;7.90;;;;;;;28.52;92.98;100253.75;5107490;28;20197;-70
2022/06/29 06:46:49;;;;;;;10.10;7.97;;;;;;;27.34;100.00;100256.53;5088507;28;20201;-70
2022/06/29 06:49:20;;;;;;;13.82;8.90;;;;;;;27.51;100.00;100260.09;5114597;28;20738;-69
2022/06/29 06:51:47;;;;;;;14.60;8.98;;;;;;;27.49;100.00;100255.78;5114522;28;20201;-68
2022/06/29 06:54:14;;;;;;;11.80;9.07;;;;;;;27.45;100.00;100246.25;5095707;28;20199;-69
2022/06/29 06:56:41;;;;;;;12.80;8.43;;;;;;;27.38;100.00;100247.47;5104295;28;20225;-70
2022/06/29 06:59:08;;;;;;;16.50;9.07;;;;;;;27.34;100.00;100238.78;5114126;28;20201;-70
2022/06/29 07:01:35;;;;;;;17.77;9.75;;;;;;;27.43;100.00;100272.91;5105521;28;20221;-68
2022/06/29 07:04:02;;;;;;;13.93;9.40;;;;;;;27.12;100.00;100256.75;5107950;28;20225;-71
2022/06/29 07:06:31;;;;;;;15.13;9.18;;;;;;;27.07;100.00;100249.03;5100676;28;20217;-69
2022/06/29 07:08:57;;;;;;;14.27;9.00;;;;;;;27.21;100.00;100240.34;5114173;28;20225;-70
2022/06/29 07:11:24;;;;;;;14.82;9.73;;;;;;;27.39;100.00;100254.53;5077975;28;20202;-70
2022/06/29 07:13:51;;;;;;;12.48;9.10;;;;;;;27.61;100.00;100243.66;5101948;28;20202;-69
2022/06/29 07:16:18;;;;;;;16.20;9.23;;;;;;;27.20;100.00;100251.06;5097491;28;20217;-69
2022/06/29 07:18:45;;;;;;;14.48;8.98;;;;;;;27.51;100.00;100260.09;5099647;28;20201;-70
2022/06/29 07:21:12;;;;;;;17.38;8.20;;;;;;;27.55;100.00;100252.81;5078143;28;20205;-70
2022/06/29 07:23:40;;;;;;;11.20;8.27;;;;;;;27.87;100.00;100256.44;5113625;28;20250;-70
2022/06/29 07:26:07;;;;;;;10.95;8.13;;;;;;;27.77;100.00;100272.06;5102728;28;20198;-70
2022/06/29 07:28:34;;;;;;;10.60;8.50;;;;;;;27.71;100.00;100261.75;5096286;28;20277;-69
2022/06/29 07:31:01;;;;;;;13.48;8.70;;;;;;;28.11;100.00;100259.66;5113374;28;20225;-70
2022/06/29 07:33:28;;;;;;;11.50;8.02;;;;;;;28.43;100.00;100262.25;5098176;28;20202;-69
2022/06/29 07:35:54;;;;;;;13.80;8.52;;;;;;;28.27;100.00;100263.19;5092942;28;20724;-69
2022/06/29 07:38:21;;;;;;;16.35;9.40;;;;;;;27.99;100.00;100255.78;5093119;28;20213;-70
2022/06/29 07:40:49;;;;;;;12.73;9.07;;;;;;;28.48;100.00;100254.84;5098886;28;20627;-70
2022/06/29 07:43:17;;;;;;;12.60;8.38;;;;;;;28.64;100.00;100254.00;5101334;28;20727;-69
2022/06/29 07:45:44;;;;;;;13.65;8.65;;;;;;;28.79;100.00;100269.19;5111303;28;20197;-68
2022/06/29 07:48:11;;;;;;;15.23;8.63;;;;;;;28.66;100.00;100265.44;5113136;28;20205;-68
2022/06/29 07:50:38;;;;;;;17.80;8.10;;;;;;;28.77;99.10;100271.06;5110815;28;20194;-67
2022/06/29 07:53:05;;;;;;;17.80;7.60;;;;;;;28.86;96.71;100271.38;5092787;28;20198;-67
2022/06/29 07:55:31;;;;;;;9.05;8.25;;;;;;;28.93;98.79;100280.78;5107688;28;20231;-67
2022/06/29 07:58:00;;;;;;;11.73;8.23;;;;;;;28.71;96.46;100271.41;5113048;28;20201;-67
2022/06/29 08:00:26;;;;;;;11.30;8.20;;;;;;;28.93;97.01;100267.41;5112956;28;20224;-68
2022/06/29 08:02:53;;;;;;;11.60;7.35;;;;;;;28.78;93.60;100273.66;5107457;28;20274;-71
2022/06/29 08:05:21;;;;;;;17.02;7.53;;;;;;;29.09;93.23;100267.41;5104888;28;20214;-74
2022/06/29 08:07:48;;;;;;;9.75;8.05;;;;;;;28.90;93.37;100248.91;5112746;28;20197;-70
2022/06/29 08:10:15;;;;;;;10.80;7.40;;;;;;;28.99;92.61;100267.09;5102976;28;20206;-67
2022/06/29 08:12:41;;;;;;;9.80;7.53;;;;;;;28.61;96.01;100265.69;5106650;28;20201;-67
2022/06/29 08:15:11;;;;;;;14.23;8.82;;;;;;;28.82;95.95;100269.88;5081796;28;20197;-68
2022/06/29 08:17:38;;;;;;;13.95;7.38;;;;;;;28.77;96.26;100253.25;5108926;28;20204;-68
2022/06/29 08:20:06;;;;;;;13.00;7.47;;;;;;;28.90;95.50;100272.94;5098225;28;20209;-68
2022/06/29 08:22:33;;;;;;;9.98;7.63;;;;;;;28.82;95.49;100271.69;5112207;28;20283;-67
2022/06/29 08:25:00;;;;;;;9.50;7.38;;;;;;;29.01;95.60;100265.19;5076474;28;20208;-68
2022/06/29 08:27:26;;;;;;;11.48;7.53;;;;;;;28.75;94.58;100214.25;5104730;28;20213;-68
2022/06/29 08:29:54;;;;;;;11.95;8.43;;;;;;;29.13;95.10;100260.06;5106160;28;20662;-68
2022/06/29 08:32:22;;;;;;;13.00;7.72;;;;;;;29.10;95.27;100265.59;5072991;28;20252;-68
2022/06/29 08:34:49;;;;;;;12.30;7.88;;;;;;;29.10;94.45;100262.94;5093342;28;20201;-68
2022/06/29 08:37:16;;;;;;;11.63;8.20;;;;;;;29.25;92.96;100257.53;5097839;28;20217;-67
2022/06/29 08:39:43;;;;;;;8.43;7.10;;;;;;;29.10;92.68;100255.78;5101391;28;20217;-68
2022/06/29 08:42:09;;;;;;;10.82;7.43;;;;;;;29.26;94.65;100261.06;5108721;28;20232;-67
2022/06/29 08:44:38;;;;;;;10.52;6.97;;;;;;;29.22;91.72;100263.06;5103167;28;20201;-67
2022/06/29 08:47:06;;;;;;;9.15;7.15;;;;;;;29.15;91.67;100271.50;5093098;28;20198;-68
2022/06/29 08:49:36;;;;;;;12.27;8.48;;;;;;;29.55;91.65;100273.59;5104519;28;20700;-68
2022/06/29 08:52:05;;;;;;;16.27;7.57;;;;;;;29.26;89.27;100231.69;5106144;28;20221;-68
2022/06/29 08:54:36;;;;;;;9.73;7.95;;;;;;;29.25;89.41;100259.38;5112000;28;20197;-68
2022/06/29 08:57:05;;;;;;;25.92;8.70;;;;;;;29.38;89.35;100265.72;5112001;28;20221;-68
2022/06/29 08:59:33;;;;;;;13.20;7.15;;;;;;;29.48;88.68;100272.22;5091688;28;20213;-68
2022/06/29 09:02:00;;;;;;;13.70;7.65;;;;;;;29.52;88.04;100260.41;5103670;28;20198;-68
2022/06/29 09:04:27;;;;;;;13.27;7.70;;;;;;;29.60;87.15;100276.84;5107020;28;20488;-68
2022/06/29 09:06:57;;;;;;;14.23;7.25;;;;;;;29.59;85.27;100235.03;5101895;28;20205;-67
2022/06/29 09:09:24;;;;;;;9.60;8.20;;;;;;;29.82;85.50;100258.53;5108840;28;20217;-68
2022/06/29 09:11:52;;;;;;;20.50;7.47;;;;;;;30.14;83.55;100263.75;5091091;28;20209;-68
2022/06/29 09:14:21;;;;;;;14.93;6.93;;;;;;;30.29;81.41;100262.75;5085784;28;20206;-67
2022/06/29 09:16:56;;;;;;;9.63;7.07;;;;;;;30.21;80.23;100265.09;5107917;28;20217;-68
2022/06/29 09:19:24;;;;;;;8.13;7.30;;;;;;;30.04;80.56;100274.16;5111682;28;20224;-69
2022/06/29 09:21:53;;;;;;;11.20;6.85;;;;;;;29.91;78.49;100268.72;5096861;28;20200;-67
2022/06/29 09:24:23;;;;;;;7.45;6.60;;;;;;;29.90;77.51;100250.94;5101510;28;20201;-67
2022/06/29 09:26:51;;;;;;;13.45;6.28;;;;;;;30.20;75.13;100264.22;5090819;28;20206;-68
2022/06/29 09:29:23;;;;;;;10.57;6.80;;;;;;;30.42;73.33;100245.03;5090916;28;20197;-68
2022/06/29 09:32:11;;;;;;;8.23;6.32;;;;;;;30.44;71.96;100245.75;5086091;28;20236;-67
2022/06/29 09:34:40;;;;;;;13.80;6.38;;;;;;;30.59;71.59;100252.81;5091058;28;20222;-67
2022/06/29 09:37:08;;;;;;;8.82;5.72;;;;;;;30.56;67.81;100253.03;5108207;28;20213;-66
2022/06/29 09:39:39;;;;;;;13.55;6.10;;;;;;;30.95;65.43;100254.91;5101386;28;20205;-70
2022/06/29 09:42:07;;;;;;;9.38;5.68;;;;;;;30.84;63.59;100233.31;5105027;28;20691;-69
2022/06/29 09:44:34;;;;;;;7.90;5.43;;;;;;;31.01;61.00;100251.84;5101661;28;20216;-68
2022/06/29 09:47:05;;;;;;;15.77;5.60;;;;;;;31.09;58.68;100254.00;5096791;28;20205;-68
2022/06/29 09:49:34;;;;;;;8.63;5.18;;;;;;;30.92;57.36;100245.25;5068663;28;20236;-69
2022/06/29 09:52:02;;;;;;;9.32;5.45;;;;;;;31.24;56.41;100252.97;5090808;28;20220;-68
2022/06/29 09:54:33;;;;;;;8.27;5.68;;;;;;;31.54;55.77;100250.03;5090701;28;20575;-69
2022/06/29 09:57:02;;;;;;;7.10;4.90;;;;;;;31.68;53.31;100241.94;5090804;28;20563;-70
2022/06/29 10:02:37;;;;;;;10.50;5.20;;;;;;;31.65;51.82;100240.31;5096294;28;20218;-70
2022/06/29 10:05:07;;;;;;;14.50;4.43;;;;;;;32.02;48.78;100245.75;5100082;28;20270;-69
2022/06/29 10:07:35;;;;;;;8.80;3.40;;;;;;;31.68;40.28;100225.84;5096462;28;20197;-69
2022/06/29 10:10:03;;;;;;;10.30;4.22;;;;;;;31.96;40.37;100258.63;5102778;28;20198;-69
2022/06/29 10:15:37;;;;;;;4.50;3.30;;;;;;;32.39;40.16;100247.56;5102867;28;20204;-69
2022/06/29 10:18:16;;;;;;;6.00;3.65;;;;;;;32.22;38.68;100253.28;5100249;28;20691;-69
2022/06/29 10:20:46;;;;;;;4.93;3.42;;;;;;;32.05;38.32;100256.28;5094432;28;20202;-70
2022/06/29 10:23:47;;;;;;;5.30;2.90;;;;;;;31.90;37.14;100252.84;5094424;28;20279;-70
2022/06/29 10:26:40;;;;;;;3.35;2.90;;;;;;;31.94;36.73;100255.22;5094471;28;20750;-70
2022/06/29 10:29:35;;;;;;;4.97;2.53;;;;;;;31.71;36.40;100225.63;5094250;28;20197;-70
2022/06/29 10:32:23;;;;;;;5.00;2.63;;;;;;;31.69;37.04;100243.63;5031666;28;20611;-70
2022/06/29 10:35:08;;;;;;;2.83;2.63;;;;;;;31.94;37.14;100249.00;5032110;28;20195;-69
2022/06/29 10:37:48;;;;;;;2.65;2.45;;;;;;;31.92;35.33;100224.97;5031625;28;20345;-69
2022/06/29 10:40:19;;;;;;;6.43;2.90;;;;;;;31.92;36.35;100241.06;5031812;28;20587;-69
2022/06/29 10:45:37;;;;;;;6.47;3.13;;;;;;;32.41;35.22;100245.63;5031584;28;20354;-70
2022/06/29 10:48:20;;;;;;;6.22;2.47;;;;;;;32.28;34.60;100210.78;5031565;28;20207;-68
2022/06/29 10:50:49;;;;;;;8.98;2.80;;;;;;;32.29;33.89;100254.53;5031827;28;20257;-71
2022/06/29 10:53:18;;;;;;;7.95;2.67;;;;;;;32.34;34.01;100252.41;5014806;28;20647;-71
2022/06/29 10:55:47;;;;;;;3.53;2.47;;;;;;;32.10;32.65;100251.50;5031464;28;20680;-70
2022/06/29 10:58:14;;;;;;;10.48;2.55;;;;;;;31.98;33.39;100255.84;5031561;28;20199;-70
2022/06/29 11:00:44;;;;;;;5.15;2.60;;;;;;;32.31;33.68;100247.25;5031390;28;20637;-71
2022/06/29 11:03:13;;;;;;;3.15;2.60;;;;;;;32.59;33.21;100251.50;5031312;28;20192;-70
2022/06/29 11:13:49;;;;;;;7.75;2.75;;;;;;;32.52;34.43;100244.84;5094056;28;20751;-71
2022/06/29 11:16:18;;;;;;;7.32;2.80;;;;;;;32.54;33.61;100237.50;5096495;28;20228;-70
2022/06/29 11:18:44;;;;;;;7.82;2.92;;;;;;;32.56;33.97;100243.66;5113491;28;20208;-69
2022/06/29 11:21:11;;;;;;;9.68;2.80;;;;;;;32.50;33.07;100247.63;5113812;28;20669;-69
2022/06/29 11:23:38;;;;;;;11.02;2.60;;;;;;;32.53;33.48;100215.19;5113766;28;20283;-69
2022/06/29 11:26:06;;;;;;;4.22;3.15;;;;;;;32.38;34.52;100216.31;5094127;28;20664;-68
2022/06/29 11:28:36;;;;;;;4.72;2.60;;;;;;;32.49;34.74;100235.19;5113767;28;20207;-69
2022/06/29 11:31:05;;;;;;;5.28;2.40;;;;;;;32.56;34.02;100224.84;5113689;28;20236;-68
2022/06/29 11:33:36;;;;;;;4.15;2.75;;;;;;;32.82;34.79;100232.69;5113870;28;20204;-69
2022/06/29 11:36:05;;;;;;;8.13;2.40;;;;;;;32.03;33.63;100159.81;5113572;28;20254;-69
2022/06/29 11:38:34;;;;;;;11.45;2.80;;;;;;;32.50;35.12;100218.09;5113477;28;20569;-70
2022/06/29 11:41:11;;;;;;;3.03;2.75;;;;;;;32.48;33.48;100185.13;5113488;28;20231;-69
2022/06/29 11:43:38;;;;;;;2.92;2.67;;;;;;;32.82;33.93;100221.13;5113632;28;20297;-69
2022/06/29 11:46:05;;;;;;;4.20;2.28;;;;;;;32.73;33.80;100217.28;5113419;28;20192;-69